sensor_id;sensor_type;location;lat;lon;timestamp;P1;durP1;ratioP1;P2;durP2;ratioP2
18001;SDS011;9126;48.160;17.130;2022-11-15T00:00:46;61.63;;;49.30;;
18001;SDS011;9126;48.160;17.130;2022-11-15T00:03:15;62.80;;;49.90;;
18001;SDS011;9126;48.160;17.130;2022-11-15T00:05:43;75.97;;;55.00;;
18001;SDS011;9126;48.160;17.130;2022-11-15T00:08:10;63.73;;;52.30;;
18001;SDS011;9126;48.160;17.130;2022-11-15T00:10:37;68.70;;;52.83;;
18001;SDS011;9126;48.160;17.130;2022-11-15T00:13:05;58.63;;;49.13;;
18001;SDS011;9126;48.160;17.130;2022-11-15T00:15:34;57.87;;;48.87;;
18001;SDS011;9126;48.160;17.130;2022-11-15T00:18:02;57.33;;;45.90;;
18001;SDS011;9126;48.160;17.130;2022-11-15T00:20:32;50.70;;;45.30;;
18001;SDS011;9126;48.160;17.130;2022-11-15T00:23:00;49.17;;;44.30;;
18001;SDS011;9126;48.160;17.130;2022-11-15T00:25:29;50.77;;;45.50;;
18001;SDS011;9126;48.160;17.130;2022-11-15T00:27:56;50.03;;;44.93;;
18001;SDS011;9126;48.160;17.130;2022-11-15T00:30:23;52.33;;;47.00;;
18001;SDS011;9126;48.160;17.130;2022-11-15T00:32:50;48.30;;;43.27;;
18001;SDS011;9126;48.160;17.130;2022-11-15T00:35:18;52.17;;;46.30;;
18001;SDS011;9126;48.160;17.130;2022-11-15T00:37:58;46.73;;;41.83;;
18001;SDS011;9126;48.160;17.130;2022-11-15T00:40:25;45.77;;;41.27;;
18001;SDS011;9126;48.160;17.130;2022-11-15T00:42:52;46.60;;;41.90;;
18001;SDS011;9126;48.160;17.130;2022-11-15T00:45:19;43.93;;;39.40;;
18001;SDS011;9126;48.160;17.130;2022-11-15T00:47:46;45.30;;;40.67;;
18001;SDS011;9126;48.160;17.130;2022-11-15T00:50:14;44.43;;;40.00;;
18001;SDS011;9126;48.160;17.130;2022-11-15T00:52:41;47.53;;;42.83;;
18001;SDS011;9126;48.160;17.130;2022-11-15T00:55:10;49.43;;;44.43;;
18001;SDS011;9126;48.160;17.130;2022-11-15T00:57:40;47.60;;;42.57;;
18001;SDS011;9126;48.160;17.130;2022-11-15T01:00:08;46.63;;;41.73;;
18001;SDS011;9126;48.160;17.130;2022-11-15T01:02:36;47.40;;;42.30;;
18001;SDS011;9126;48.160;17.130;2022-11-15T01:05:03;49.03;;;44.13;;
18001;SDS011;9126;48.160;17.130;2022-11-15T01:07:30;46.57;;;41.73;;
18001;SDS011;9126;48.160;17.130;2022-11-15T01:09:57;47.80;;;42.60;;
18001;SDS011;9126;48.160;17.130;2022-11-15T01:12:25;44.93;;;40.30;;
18001;SDS011;9126;48.160;17.130;2022-11-15T01:14:52;45.47;;;40.73;;
18001;SDS011;9126;48.160;17.130;2022-11-15T01:17:19;46.03;;;41.20;;
18001;SDS011;9126;48.160;17.130;2022-11-15T01:19:46;48.23;;;43.10;;
18001;SDS011;9126;48.160;17.130;2022-11-15T01:22:20;51.30;;;46.10;;
18001;SDS011;9126;48.160;17.130;2022-11-15T01:24:48;49.30;;;44.20;;
18001;SDS011;9126;48.160;17.130;2022-11-15T01:27:16;46.27;;;41.47;;
18001;SDS011;9126;48.160;17.130;2022-11-15T01:29:44;45.80;;;41.03;;
18001;SDS011;9126;48.160;17.130;2022-11-15T01:32:11;46.23;;;41.43;;
18001;SDS011;9126;48.160;17.130;2022-11-15T01:34:38;46.30;;;41.50;;
18001;SDS011;9126;48.160;17.130;2022-11-15T01:37:05;46.67;;;41.77;;
18001;SDS011;9126;48.160;17.130;2022-11-15T01:39:32;45.77;;;40.97;;
18001;SDS011;9126;48.160;17.130;2022-11-15T01:41:59;46.93;;;42.03;;
18001;SDS011;9126;48.160;17.130;2022-11-15T01:44:31;45.47;;;40.80;;
18001;SDS011;9126;48.160;17.130;2022-11-15T01:47:17;48.70;;;43.70;;
18001;SDS011;9126;48.160;17.130;2022-11-15T01:49:49;46.47;;;41.47;;
18001;SDS011;9126;48.160;17.130;2022-11-15T01:52:22;45.80;;;41.07;;
18001;SDS011;9126;48.160;17.130;2022-11-15T01:54:53;46.73;;;41.77;;
18001;SDS011;9126;48.160;17.130;2022-11-15T01:57:24;46.40;;;41.27;;
18001;SDS011;9126;48.160;17.130;2022-11-15T01:59:52;47.07;;;42.20;;
18001;SDS011;9126;48.160;17.130;2022-11-15T02:02:20;48.00;;;43.00;;
18001;SDS011;9126;48.160;17.130;2022-11-15T02:04:47;46.97;;;42.07;;
18001;SDS011;9126;48.160;17.130;2022-11-15T02:07:15;44.07;;;39.67;;
18001;SDS011;9126;48.160;17.130;2022-11-15T02:09:44;44.63;;;40.10;;
18001;SDS011;9126;48.160;17.130;2022-11-15T02:12:12;45.23;;;40.83;;
18001;SDS011;9126;48.160;17.130;2022-11-15T02:14:44;45.43;;;40.73;;
18001;SDS011;9126;48.160;17.130;2022-11-15T02:17:23;43.97;;;39.30;;
18001;SDS011;9126;48.160;17.130;2022-11-15T02:20:08;46.37;;;41.37;;
18001;SDS011;9126;48.160;17.130;2022-11-15T02:23:17;47.60;;;42.73;;
18001;SDS011;9126;48.160;17.130;2022-11-15T02:26:11;45.30;;;40.67;;
18001;SDS011;9126;48.160;17.130;2022-11-15T02:28:58;45.53;;;40.93;;
18001;SDS011;9126;48.160;17.130;2022-11-15T02:31:31;44.93;;;40.20;;
18001;SDS011;9126;48.160;17.130;2022-11-15T02:34:08;45.43;;;40.73;;
18001;SDS011;9126;48.160;17.130;2022-11-15T02:36:44;44.87;;;40.27;;
18001;SDS011;9126;48.160;17.130;2022-11-15T02:39:17;44.70;;;40.10;;
18001;SDS011;9126;48.160;17.130;2022-11-15T02:41:50;45.20;;;40.43;;
18001;SDS011;9126;48.160;17.130;2022-11-15T02:44:21;45.70;;;40.87;;
18001;SDS011;9126;48.160;17.130;2022-11-15T02:46:53;46.30;;;41.50;;
18001;SDS011;9126;48.160;17.130;2022-11-15T02:49:40;45.40;;;40.90;;
18001;SDS011;9126;48.160;17.130;2022-11-15T02:52:13;46.10;;;41.37;;
18001;SDS011;9126;48.160;17.130;2022-11-15T02:54:41;48.00;;;42.70;;
18001;SDS011;9126;48.160;17.130;2022-11-15T02:57:10;47.23;;;42.23;;
18001;SDS011;9126;48.160;17.130;2022-11-15T03:00:00;48.50;;;43.30;;
18001;SDS011;9126;48.160;17.130;2022-11-15T03:02:36;48.87;;;43.73;;
18001;SDS011;9126;48.160;17.130;2022-11-15T03:05:14;48.87;;;43.80;;
18001;SDS011;9126;48.160;17.130;2022-11-15T03:07:48;49.60;;;44.20;;
18001;SDS011;9126;48.160;17.130;2022-11-15T03:10:21;49.10;;;42.37;;
18001;SDS011;9126;48.160;17.130;2022-11-15T03:12:54;51.20;;;45.60;;
18001;SDS011;9126;48.160;17.130;2022-11-15T03:15:24;50.97;;;45.47;;
18001;SDS011;9126;48.160;17.130;2022-11-15T03:17:58;51.73;;;46.03;;
18001;SDS011;9126;48.160;17.130;2022-11-15T03:20:27;55.67;;;46.23;;
18001;SDS011;9126;48.160;17.130;2022-11-15T03:22:56;51.27;;;45.70;;
18001;SDS011;9126;48.160;17.130;2022-11-15T03:25:29;55.93;;;46.63;;
18001;SDS011;9126;48.160;17.130;2022-11-15T03:27:59;51.07;;;45.30;;
18001;SDS011;9126;48.160;17.130;2022-11-15T03:30:30;54.37;;;46.20;;
18001;SDS011;9126;48.160;17.130;2022-11-15T03:33:00;55.50;;;48.07;;
18001;SDS011;9126;48.160;17.130;2022-11-15T03:35:30;60.03;;;50.27;;
18001;SDS011;9126;48.160;17.130;2022-11-15T03:38:04;60.97;;;51.70;;
18001;SDS011;9126;48.160;17.130;2022-11-15T03:40:38;60.87;;;51.03;;
18001;SDS011;9126;48.160;17.130;2022-11-15T03:43:08;58.20;;;51.00;;
18001;SDS011;9126;48.160;17.130;2022-11-15T03:45:41;60.57;;;50.93;;
18001;SDS011;9126;48.160;17.130;2022-11-15T03:48:14;65.20;;;54.17;;
18001;SDS011;9126;48.160;17.130;2022-11-15T03:50:45;58.67;;;52.20;;
18001;SDS011;9126;48.160;17.130;2022-11-15T03:53:13;58.73;;;52.30;;
18001;SDS011;9126;48.160;17.130;2022-11-15T03:55:40;58.97;;;52.67;;
18001;SDS011;9126;48.160;17.130;2022-11-15T03:58:07;55.90;;;49.90;;
18001;SDS011;9126;48.160;17.130;2022-11-15T04:00:34;61.00;;;54.47;;
18001;SDS011;9126;48.160;17.130;2022-11-15T04:03:01;62.53;;;51.87;;
18001;SDS011;9126;48.160;17.130;2022-11-15T04:05:30;59.47;;;51.07;;
18001;SDS011;9126;48.160;17.130;2022-11-15T04:07:57;61.30;;;52.37;;
18001;SDS011;9126;48.160;17.130;2022-11-15T04:10:24;62.80;;;54.97;;
18001;SDS011;9126;48.160;17.130;2022-11-15T04:12:51;64.53;;;53.80;;
18001;SDS011;9126;48.160;17.130;2022-11-15T04:15:19;58.50;;;51.60;;
18001;SDS011;9126;48.160;17.130;2022-11-15T04:17:48;58.33;;;51.90;;
18001;SDS011;9126;48.160;17.130;2022-11-15T04:20:17;59.40;;;51.30;;
18001;SDS011;9126;48.160;17.130;2022-11-15T04:23:06;60.70;;;54.13;;
18001;SDS011;9126;48.160;17.130;2022-11-15T04:25:54;60.93;;;53.13;;
18001;SDS011;9126;48.160;17.130;2022-11-15T04:28:22;60.00;;;52.77;;
18001;SDS011;9126;48.160;17.130;2022-11-15T04:30:49;59.23;;;51.70;;
18001;SDS011;9126;48.160;17.130;2022-11-15T04:33:16;58.03;;;50.63;;
18001;SDS011;9126;48.160;17.130;2022-11-15T04:35:43;57.43;;;50.60;;
18001;SDS011;9126;48.160;17.130;2022-11-15T04:38:32;55.93;;;50.10;;
18001;SDS011;9126;48.160;17.130;2022-11-15T04:40:59;56.03;;;49.20;;
18001;SDS011;9126;48.160;17.130;2022-11-15T04:43:26;59.57;;;50.57;;
18001;SDS011;9126;48.160;17.130;2022-11-15T04:45:54;56.13;;;50.13;;
18001;SDS011;9126;48.160;17.130;2022-11-15T04:48:21;56.93;;;50.33;;
18001;SDS011;9126;48.160;17.130;2022-11-15T04:50:48;59.30;;;51.80;;
18001;SDS011;9126;48.160;17.130;2022-11-15T04:53:15;57.63;;;51.43;;
18001;SDS011;9126;48.160;17.130;2022-11-15T04:55:45;57.00;;;50.77;;
18001;SDS011;9126;48.160;17.130;2022-11-15T04:58:12;56.63;;;50.63;;
18001;SDS011;9126;48.160;17.130;2022-11-15T05:00:39;56.73;;;50.57;;
18001;SDS011;9126;48.160;17.130;2022-11-15T05:03:06;54.77;;;48.77;;
18001;SDS011;9126;48.160;17.130;2022-11-15T05:05:52;56.77;;;49.83;;
18001;SDS011;9126;48.160;17.130;2022-11-15T05:08:19;54.30;;;48.23;;
18001;SDS011;9126;48.160;17.130;2022-11-15T05:10:47;55.53;;;49.43;;
18001;SDS011;9126;48.160;17.130;2022-11-15T05:13:14;56.40;;;48.27;;
18001;SDS011;9126;48.160;17.130;2022-11-15T05:15:41;54.47;;;48.57;;
18001;SDS011;9126;48.160;17.130;2022-11-15T05:18:08;54.57;;;48.67;;
18001;SDS011;9126;48.160;17.130;2022-11-15T05:20:35;52.30;;;46.70;;
18001;SDS011;9126;48.160;17.130;2022-11-15T05:23:02;56.57;;;47.83;;
18001;SDS011;9126;48.160;17.130;2022-11-15T05:25:29;51.93;;;46.50;;
18001;SDS011;9126;48.160;17.130;2022-11-15T05:27:57;51.30;;;45.90;;
18001;SDS011;9126;48.160;17.130;2022-11-15T05:30:24;51.23;;;45.93;;
18001;SDS011;9126;48.160;17.130;2022-11-15T05:32:51;51.23;;;45.60;;
18001;SDS011;9126;48.160;17.130;2022-11-15T05:35:21;52.20;;;46.57;;
18001;SDS011;9126;48.160;17.130;2022-11-15T05:37:55;52.57;;;46.83;;
18001;SDS011;9126;48.160;17.130;2022-11-15T05:40:25;51.17;;;45.87;;
18001;SDS011;9126;48.160;17.130;2022-11-15T05:42:53;52.37;;;46.33;;
18001;SDS011;9126;48.160;17.130;2022-11-15T05:45:21;51.80;;;46.20;;
18001;SDS011;9126;48.160;17.130;2022-11-15T05:47:49;50.80;;;45.33;;
18001;SDS011;9126;48.160;17.130;2022-11-15T05:50:16;47.97;;;43.10;;
18001;SDS011;9126;48.160;17.130;2022-11-15T05:52:44;48.37;;;43.57;;
18001;SDS011;9126;48.160;17.130;2022-11-15T05:55:13;48.43;;;43.43;;
18001;SDS011;9126;48.160;17.130;2022-11-15T05:57:40;47.30;;;42.07;;
18001;SDS011;9126;48.160;17.130;2022-11-15T06:00:08;45.93;;;41.20;;
18001;SDS011;9126;48.160;17.130;2022-11-15T06:02:37;44.77;;;39.90;;
18001;SDS011;9126;48.160;17.130;2022-11-15T06:05:04;48.17;;;42.77;;
18001;SDS011;9126;48.160;17.130;2022-11-15T06:07:31;46.10;;;41.10;;
18001;SDS011;9126;48.160;17.130;2022-11-15T06:09:59;43.80;;;39.20;;
18001;SDS011;9126;48.160;17.130;2022-11-15T06:12:26;44.43;;;39.87;;
18001;SDS011;9126;48.160;17.130;2022-11-15T06:14:53;44.63;;;39.77;;
18001;SDS011;9126;48.160;17.130;2022-11-15T06:17:20;44.27;;;39.53;;
18001;SDS011;9126;48.160;17.130;2022-11-15T06:19:48;45.30;;;40.50;;
18001;SDS011;9126;48.160;17.130;2022-11-15T06:22:15;43.93;;;39.13;;
18001;SDS011;9126;48.160;17.130;2022-11-15T06:24:42;43.03;;;38.53;;
18001;SDS011;9126;48.160;17.130;2022-11-15T06:27:10;42.77;;;38.43;;
18001;SDS011;9126;48.160;17.130;2022-11-15T06:29:37;43.33;;;38.37;;
18001;SDS011;9126;48.160;17.130;2022-11-15T06:32:04;45.83;;;38.20;;
18001;SDS011;9126;48.160;17.130;2022-11-15T06:34:31;41.80;;;36.60;;
18001;SDS011;9126;48.160;17.130;2022-11-15T06:36:59;40.50;;;36.30;;
18001;SDS011;9126;48.160;17.130;2022-11-15T06:39:27;40.67;;;36.47;;
18001;SDS011;9126;48.160;17.130;2022-11-15T06:41:54;38.50;;;34.33;;
18001;SDS011;9126;48.160;17.130;2022-11-15T06:44:21;38.83;;;34.73;;
18001;SDS011;9126;48.160;17.130;2022-11-15T06:46:48;36.13;;;32.43;;
18001;SDS011;9126;48.160;17.130;2022-11-15T06:49:15;34.90;;;31.10;;
18001;SDS011;9126;48.160;17.130;2022-11-15T06:51:42;35.43;;;31.73;;
18001;SDS011;9126;48.160;17.130;2022-11-15T06:54:11;35.70;;;31.17;;
18001;SDS011;9126;48.160;17.130;2022-11-15T06:56:38;34.00;;;30.10;;
18001;SDS011;9126;48.160;17.130;2022-11-15T06:59:04;32.07;;;28.63;;
18001;SDS011;9126;48.160;17.130;2022-11-15T07:01:31;33.57;;;30.13;;
18001;SDS011;9126;48.160;17.130;2022-11-15T07:03:58;32.83;;;29.10;;
18001;SDS011;9126;48.160;17.130;2022-11-15T07:06:25;33.07;;;29.13;;
18001;SDS011;9126;48.160;17.130;2022-11-15T07:08:52;31.00;;;27.80;;
18001;SDS011;9126;48.160;17.130;2022-11-15T07:11:20;30.53;;;27.10;;
18001;SDS011;9126;48.160;17.130;2022-11-15T07:13:47;30.93;;;27.83;;
18001;SDS011;9126;48.160;17.130;2022-11-15T07:16:14;29.33;;;26.30;;
18001;SDS011;9126;48.160;17.130;2022-11-15T07:18:41;29.67;;;26.53;;
18001;SDS011;9126;48.160;17.130;2022-11-15T07:21:09;29.63;;;26.47;;
18001;SDS011;9126;48.160;17.130;2022-11-15T07:23:36;30.70;;;26.53;;
18001;SDS011;9126;48.160;17.130;2022-11-15T07:26:04;28.70;;;26.00;;
18001;SDS011;9126;48.160;17.130;2022-11-15T07:28:33;29.30;;;25.70;;
18001;SDS011;9126;48.160;17.130;2022-11-15T07:31:01;30.83;;;26.37;;
18001;SDS011;9126;48.160;17.130;2022-11-15T07:33:33;31.43;;;27.10;;
18001;SDS011;9126;48.160;17.130;2022-11-15T07:36:00;29.27;;;26.07;;
18001;SDS011;9126;48.160;17.130;2022-11-15T07:38:27;28.83;;;25.93;;
18001;SDS011;9126;48.160;17.130;2022-11-15T07:40:58;29.80;;;26.67;;
18001;SDS011;9126;48.160;17.130;2022-11-15T07:43:26;27.03;;;24.33;;
18001;SDS011;9126;48.160;17.130;2022-11-15T07:45:56;30.83;;;25.83;;
18001;SDS011;9126;48.160;17.130;2022-11-15T07:48:23;28.43;;;25.37;;
18001;SDS011;9126;48.160;17.130;2022-11-15T07:50:50;29.63;;;25.40;;
18001;SDS011;9126;48.160;17.130;2022-11-15T07:53:16;27.50;;;24.30;;
18001;SDS011;9126;48.160;17.130;2022-11-15T07:55:43;26.70;;;24.00;;
18001;SDS011;9126;48.160;17.130;2022-11-15T07:58:11;26.23;;;23.47;;
18001;SDS011;9126;48.160;17.130;2022-11-15T08:00:38;28.23;;;25.33;;
18001;SDS011;9126;48.160;17.130;2022-11-15T08:03:08;30.23;;;24.10;;
18001;SDS011;9126;48.160;17.130;2022-11-15T08:05:38;28.87;;;25.17;;
18001;SDS011;9126;48.160;17.130;2022-11-15T08:08:06;27.13;;;24.30;;
18001;SDS011;9126;48.160;17.130;2022-11-15T08:10:33;26.67;;;23.97;;
18001;SDS011;9126;48.160;17.130;2022-11-15T08:13:01;27.03;;;24.13;;
18001;SDS011;9126;48.160;17.130;2022-11-15T08:15:32;27.73;;;24.93;;
18001;SDS011;9126;48.160;17.130;2022-11-15T08:18:01;26.60;;;23.77;;
18001;SDS011;9126;48.160;17.130;2022-11-15T08:20:31;29.07;;;26.00;;
18001;SDS011;9126;48.160;17.130;2022-11-15T08:23:00;27.10;;;24.30;;
18001;SDS011;9126;48.160;17.130;2022-11-15T08:25:30;27.13;;;24.33;;
18001;SDS011;9126;48.160;17.130;2022-11-15T08:27:59;27.10;;;24.23;;
18001;SDS011;9126;48.160;17.130;2022-11-15T08:30:30;27.67;;;24.77;;
18001;SDS011;9126;48.160;17.130;2022-11-15T08:32:57;33.63;;;24.97;;
18001;SDS011;9126;48.160;17.130;2022-11-15T08:35:24;27.23;;;24.40;;
18001;SDS011;9126;48.160;17.130;2022-11-15T08:37:53;30.87;;;26.60;;
18001;SDS011;9126;48.160;17.130;2022-11-15T08:40:20;30.57;;;26.70;;
18001;SDS011;9126;48.160;17.130;2022-11-15T08:42:47;32.07;;;25.40;;
18001;SDS011;9126;48.160;17.130;2022-11-15T08:45:15;38.10;;;29.23;;
18001;SDS011;9126;48.160;17.130;2022-11-15T08:47:43;38.17;;;31.70;;
18001;SDS011;9126;48.160;17.130;2022-11-15T08:50:10;30.17;;;26.20;;
18001;SDS011;9126;48.160;17.130;2022-11-15T08:52:37;37.13;;;31.33;;
18001;SDS011;9126;48.160;17.130;2022-11-15T08:55:07;32.30;;;26.33;;
18001;SDS011;9126;48.160;17.130;2022-11-15T08:57:37;40.30;;;32.13;;
18001;SDS011;9126;48.160;17.130;2022-11-15T09:00:10;67.87;;;55.73;;
18001;SDS011;9126;48.160;17.130;2022-11-15T09:02:38;28.87;;;25.93;;
18001;SDS011;9126;48.160;17.130;2022-11-15T09:05:06;32.93;;;29.30;;
18001;SDS011;9126;48.160;17.130;2022-11-15T09:07:34;35.37;;;31.50;;
18001;SDS011;9126;48.160;17.130;2022-11-15T09:10:01;28.77;;;25.87;;
18001;SDS011;9126;48.160;17.130;2022-11-15T09:12:29;29.07;;;25.97;;
18001;SDS011;9126;48.160;17.130;2022-11-15T09:14:56;29.53;;;26.53;;
18001;SDS011;9126;48.160;17.130;2022-11-15T09:17:24;32.73;;;26.07;;
18001;SDS011;9126;48.160;17.130;2022-11-15T09:19:51;28.27;;;25.30;;
18001;SDS011;9126;48.160;17.130;2022-11-15T09:22:18;30.20;;;25.97;;
18001;SDS011;9126;48.160;17.130;2022-11-15T09:24:45;26.37;;;23.77;;
18001;SDS011;9126;48.160;17.130;2022-11-15T09:27:12;28.27;;;24.57;;
18001;SDS011;9126;48.160;17.130;2022-11-15T09:29:40;28.10;;;23.43;;
18001;SDS011;9126;48.160;17.130;2022-11-15T09:32:07;29.53;;;26.43;;
18001;SDS011;9126;48.160;17.130;2022-11-15T09:34:37;28.30;;;25.23;;
18001;SDS011;9126;48.160;17.130;2022-11-15T09:37:04;26.07;;;23.50;;
18001;SDS011;9126;48.160;17.130;2022-11-15T09:39:34;26.87;;;24.07;;
18001;SDS011;9126;48.160;17.130;2022-11-15T09:42:14;27.97;;;25.00;;
18001;SDS011;9126;48.160;17.130;2022-11-15T09:45:06;28.00;;;25.17;;
18001;SDS011;9126;48.160;17.130;2022-11-15T09:47:48;28.87;;;24.23;;
18001;SDS011;9126;48.160;17.130;2022-11-15T09:50:28;27.83;;;24.90;;
18001;SDS011;9126;48.160;17.130;2022-11-15T09:53:00;31.00;;;25.87;;
18001;SDS011;9126;48.160;17.130;2022-11-15T09:55:30;28.63;;;25.53;;
18001;SDS011;9126;48.160;17.130;2022-11-15T09:58:07;29.77;;;25.50;;
18001;SDS011;9126;48.160;17.130;2022-11-15T10:00:57;29.10;;;26.10;;
18001;SDS011;9126;48.160;17.130;2022-11-15T10:03:27;28.67;;;25.10;;
18001;SDS011;9126;48.160;17.130;2022-11-15T10:05:59;27.23;;;24.17;;
18001;SDS011;9126;48.160;17.130;2022-11-15T10:08:31;28.90;;;25.20;;
18001;SDS011;9126;48.160;17.130;2022-11-15T10:11:09;28.80;;;25.80;;
18001;SDS011;9126;48.160;17.130;2022-11-15T10:13:40;28.17;;;25.17;;
18001;SDS011;9126;48.160;17.130;2022-11-15T10:19:12;27.23;;;24.50;;
18001;SDS011;9126;48.160;17.130;2022-11-15T10:21:50;26.53;;;23.73;;
18001;SDS011;9126;48.160;17.130;2022-11-15T10:24:30;27.83;;;25.03;;
18001;SDS011;9126;48.160;17.130;2022-11-15T10:27:03;28.17;;;25.23;;
18001;SDS011;9126;48.160;17.130;2022-11-15T10:29:50;29.30;;;25.40;;
18001;SDS011;9126;48.160;17.130;2022-11-15T10:32:28;28.33;;;25.40;;
18001;SDS011;9126;48.160;17.130;2022-11-15T10:34:59;29.10;;;26.23;;
18001;SDS011;9126;48.160;17.130;2022-11-15T10:37:41;29.83;;;26.60;;
18001;SDS011;9126;48.160;17.130;2022-11-15T10:40:17;30.03;;;26.93;;
18001;SDS011;9126;48.160;17.130;2022-11-15T10:42:47;31.63;;;28.23;;
18001;SDS011;9126;48.160;17.130;2022-11-15T10:45:22;31.67;;;27.23;;
18001;SDS011;9126;48.160;17.130;2022-11-15T10:47:52;30.80;;;27.60;;
18001;SDS011;9126;48.160;17.130;2022-11-15T10:50:31;31.27;;;27.90;;
18001;SDS011;9126;48.160;17.130;2022-11-15T10:52:58;31.07;;;27.93;;
18001;SDS011;9126;48.160;17.130;2022-11-15T10:55:29;29.57;;;26.53;;
18001;SDS011;9126;48.160;17.130;2022-11-15T10:58:00;29.80;;;26.53;;
18001;SDS011;9126;48.160;17.130;2022-11-15T11:00:31;31.67;;;28.23;;
18001;SDS011;9126;48.160;17.130;2022-11-15T11:03:02;29.23;;;26.07;;
18001;SDS011;9126;48.160;17.130;2022-11-15T11:05:34;32.43;;;27.97;;
18001;SDS011;9126;48.160;17.130;2022-11-15T11:08:04;32.63;;;28.23;;
18001;SDS011;9126;48.160;17.130;2022-11-15T11:10:46;31.83;;;28.63;;
18001;SDS011;9126;48.160;17.130;2022-11-15T11:13:21;33.30;;;29.20;;
18001;SDS011;9126;48.160;17.130;2022-11-15T11:15:51;31.37;;;27.93;;
18001;SDS011;9126;48.160;17.130;2022-11-15T11:18:26;34.83;;;31.20;;
18001;SDS011;9126;48.160;17.130;2022-11-15T11:21:02;32.93;;;29.43;;
18001;SDS011;9126;48.160;17.130;2022-11-15T11:23:41;33.80;;;28.43;;
18001;SDS011;9126;48.160;17.130;2022-11-15T11:26:15;35.10;;;31.47;;
18001;SDS011;9126;48.160;17.130;2022-11-15T11:28:58;35.10;;;31.33;;
18001;SDS011;9126;48.160;17.130;2022-11-15T11:31:34;37.13;;;31.40;;
18001;SDS011;9126;48.160;17.130;2022-11-15T11:34:13;35.20;;;31.40;;
18001;SDS011;9126;48.160;17.130;2022-11-15T11:36:54;35.93;;;32.13;;
18001;SDS011;9126;48.160;17.130;2022-11-15T11:39:28;38.70;;;32.33;;
18001;SDS011;9126;48.160;17.130;2022-11-15T11:42:06;37.33;;;32.70;;
18001;SDS011;9126;48.160;17.130;2022-11-15T11:44:45;35.97;;;31.90;;
18001;SDS011;9126;48.160;17.130;2022-11-15T11:47:19;35.87;;;31.23;;
18001;SDS011;9126;48.160;17.130;2022-11-15T11:49:51;34.87;;;31.27;;
18001;SDS011;9126;48.160;17.130;2022-11-15T11:52:23;36.03;;;32.23;;
18001;SDS011;9126;48.160;17.130;2022-11-15T11:54:55;35.57;;;31.77;;
18001;SDS011;9126;48.160;17.130;2022-11-15T11:57:33;36.37;;;31.83;;
18001;SDS011;9126;48.160;17.130;2022-11-15T12:00:12;39.03;;;32.67;;
18001;SDS011;9126;48.160;17.130;2022-11-15T12:02:43;35.70;;;30.17;;
18001;SDS011;9126;48.160;17.130;2022-11-15T12:05:16;35.37;;;31.23;;
18001;SDS011;9126;48.160;17.130;2022-11-15T12:07:49;37.57;;;32.70;;
18001;SDS011;9126;48.160;17.130;2022-11-15T12:10:21;36.73;;;32.30;;
18001;SDS011;9126;48.160;17.130;2022-11-15T12:12:52;36.97;;;33.13;;
18001;SDS011;9126;48.160;17.130;2022-11-15T12:15:26;40.97;;;32.83;;
18001;SDS011;9126;48.160;17.130;2022-11-15T12:17:56;37.27;;;33.10;;
18001;SDS011;9126;48.160;17.130;2022-11-15T12:20:26;40.50;;;34.63;;
18001;SDS011;9126;48.160;17.130;2022-11-15T12:22:56;38.73;;;33.93;;
18001;SDS011;9126;48.160;17.130;2022-11-15T12:25:28;37.80;;;33.80;;
18001;SDS011;9126;48.160;17.130;2022-11-15T12:27:59;38.77;;;34.53;;
18001;SDS011;9126;48.160;17.130;2022-11-15T12:30:36;39.53;;;35.20;;
18001;SDS011;9126;48.160;17.130;2022-11-15T12:36:01;38.57;;;34.40;;
18001;SDS011;9126;48.160;17.130;2022-11-15T12:41:23;38.90;;;34.67;;
18001;SDS011;9126;48.160;17.130;2022-11-15T12:43:53;44.07;;;35.30;;
18001;SDS011;9126;48.160;17.130;2022-11-15T12:49:46;40.73;;;35.03;;
18001;SDS011;9126;48.160;17.130;2022-11-15T12:52:15;45.97;;;34.57;;
18001;SDS011;9126;48.160;17.130;2022-11-15T12:55:01;42.17;;;35.30;;
18001;SDS011;9126;48.160;17.130;2022-11-15T12:57:56;43.83;;;37.07;;
18001;SDS011;9126;48.160;17.130;2022-11-15T13:00:53;41.67;;;35.03;;
18001;SDS011;9126;48.160;17.130;2022-11-15T13:03:24;38.77;;;34.07;;
18001;SDS011;9126;48.160;17.130;2022-11-15T13:08:54;42.90;;;35.53;;
18001;SDS011;9126;48.160;17.130;2022-11-15T13:17:22;39.23;;;34.93;;
18001;SDS011;9126;48.160;17.130;2022-11-15T13:22:53;39.77;;;34.77;;
18001;SDS011;9126;48.160;17.130;2022-11-15T13:25:40;38.27;;;33.83;;
18001;SDS011;9126;48.160;17.130;2022-11-15T13:28:27;38.97;;;34.83;;
18001;SDS011;9126;48.160;17.130;2022-11-15T13:31:05;37.50;;;33.60;;
18001;SDS011;9126;48.160;17.130;2022-11-15T13:33:47;45.13;;;33.63;;
18001;SDS011;9126;48.160;17.130;2022-11-15T13:36:18;39.40;;;33.53;;
18001;SDS011;9126;48.160;17.130;2022-11-15T13:38:54;45.23;;;35.30;;
18001;SDS011;9126;48.160;17.130;2022-11-15T13:41:24;39.87;;;34.70;;
18001;SDS011;9126;48.160;17.130;2022-11-15T13:43:53;39.57;;;34.90;;
18001;SDS011;9126;48.160;17.130;2022-11-15T13:46:21;38.93;;;34.73;;
18001;SDS011;9126;48.160;17.130;2022-11-15T13:48:56;44.90;;;36.13;;
18001;SDS011;9126;48.160;17.130;2022-11-15T13:51:27;41.53;;;37.00;;
18001;SDS011;9126;48.160;17.130;2022-11-15T13:54:07;44.37;;;36.93;;
18001;SDS011;9126;48.160;17.130;2022-11-15T13:56:44;43.40;;;37.87;;
18001;SDS011;9126;48.160;17.130;2022-11-15T13:59:18;43.80;;;38.13;;
18001;SDS011;9126;48.160;17.130;2022-11-15T14:01:56;42.53;;;37.90;;
18001;SDS011;9126;48.160;17.130;2022-11-15T14:04:26;43.93;;;39.10;;
18001;SDS011;9126;48.160;17.130;2022-11-15T14:06:59;48.23;;;37.47;;
18001;SDS011;9126;48.160;17.130;2022-11-15T14:12:23;50.13;;;37.57;;
18001;SDS011;9126;48.160;17.130;2022-11-15T14:14:55;44.60;;;37.23;;
18001;SDS011;9126;48.160;17.130;2022-11-15T14:17:33;49.53;;;37.07;;
18001;SDS011;9126;48.160;17.130;2022-11-15T14:20:18;44.97;;;35.67;;
18001;SDS011;9126;48.160;17.130;2022-11-15T14:22:53;44.87;;;36.20;;
18001;SDS011;9126;48.160;17.130;2022-11-15T14:25:22;45.93;;;37.03;;
18001;SDS011;9126;48.160;17.130;2022-11-15T14:28:10;40.50;;;36.13;;
18001;SDS011;9126;48.160;17.130;2022-11-15T14:30:43;40.27;;;36.07;;
18001;SDS011;9126;48.160;17.130;2022-11-15T14:33:19;41.23;;;35.67;;
18001;SDS011;9126;48.160;17.130;2022-11-15T14:35:48;39.37;;;35.07;;
18001;SDS011;9126;48.160;17.130;2022-11-15T14:38:16;42.23;;;33.47;;
18001;SDS011;9126;48.160;17.130;2022-11-15T14:40:43;37.90;;;33.87;;
18001;SDS011;9126;48.160;17.130;2022-11-15T14:43:14;37.43;;;32.83;;
18001;SDS011;9126;48.160;17.130;2022-11-15T14:45:41;36.03;;;30.80;;
18001;SDS011;9126;48.160;17.130;2022-11-15T14:48:09;34.27;;;30.47;;
18001;SDS011;9126;48.160;17.130;2022-11-15T14:50:38;34.43;;;30.83;;
18001;SDS011;9126;48.160;17.130;2022-11-15T14:53:10;38.13;;;31.73;;
18001;SDS011;9126;48.160;17.130;2022-11-15T14:55:48;34.07;;;30.27;;
18001;SDS011;9126;48.160;17.130;2022-11-15T14:58:17;34.80;;;30.63;;
18001;SDS011;9126;48.160;17.130;2022-11-15T15:00:43;35.37;;;31.47;;
18001;SDS011;9126;48.160;17.130;2022-11-15T15:03:10;34.93;;;31.10;;
18001;SDS011;9126;48.160;17.130;2022-11-15T15:05:38;34.27;;;30.67;;
18001;SDS011;9126;48.160;17.130;2022-11-15T15:08:08;34.33;;;30.77;;
18001;SDS011;9126;48.160;17.130;2022-11-15T15:10:36;33.90;;;30.23;;